Time;durP1;ratioP1;P1;durP2;ratioP2;P2;SDS_P1;SDS_P2;PMS_P1;PMS_P2;Temp;Humidity;BMP_temperature;BMP_pressure;BME280_temperature;BME280_humidity;BME280_pressure;Samples;Min_cycle;Max_cycle;Signal;HPM_P1;HPM_P2
2021/06/06 00:01:40;;;;;;;5.40;4.90;;;25.10;53.80;;;;;;5026971;28;20214;-66
2021/06/06 00:04:20;;;;;;;4.93;4.43;;;25.10;53.80;;;;;;5015545;28;20203;-66
2021/06/06 00:07:07;;;;;;;4.67;4.27;;;25.10;53.80;;;;;;5029305;28;20567;-65
2021/06/06 00:09:33;;;;;;;4.83;4.43;;;25.10;53.80;;;;;;5044548;28;20198;-66
2021/06/06 00:12:00;;;;;;;5.00;4.50;;;25.10;53.80;;;;;;5048844;28;20214;-66
2021/06/06 00:14:30;;;;;;;4.80;4.40;;;25.10;53.80;;;;;;5042156;28;20187;-66
2021/06/06 00:16:59;;;;;;;4.60;4.20;;;25.10;53.80;;;;;;5041576;28;20195;-66
2021/06/06 00:19:27;;;;;;;5.10;4.70;;;25.10;53.80;;;;;;5038400;28;20272;-66
2021/06/06 00:21:56;;;;;;;4.50;4.10;;;25.10;53.80;;;;;;5026965;28;20199;-66
2021/06/06 00:24:27;;;;;;;4.90;4.40;;;25.10;53.80;;;;;;5027342;28;20202;-66
2021/06/06 00:26:54;;;;;;;4.03;3.73;;;25.00;53.70;;;;;;5022058;28;20851;-66
2021/06/06 00:29:22;;;;;;;5.07;4.67;;;25.00;53.80;;;;;;5028122;28;20199;-66
2021/06/06 00:31:49;;;;;;;4.43;4.03;;;25.00;53.80;;;;;;5017468;28;20215;-66
2021/06/06 00:34:17;;;;;;;4.43;4.03;;;25.10;53.80;;;;;;5028718;28;20231;-66
2021/06/06 00:36:43;;;;;;;4.43;4.03;;;25.10;53.90;;;;;;5018781;28;20204;-66
2021/06/06 00:39:10;;;;;;;4.70;4.20;;;25.00;53.80;;;;;;5020452;28;20195;-66
2021/06/06 00:41:39;;;;;;;4.50;4.10;;;25.00;53.80;;;;;;5019557;28;20234;-66
2021/06/06 00:44:07;;;;;;;3.93;3.63;;;25.00;53.80;;;;;;5040104;28;20184;-66
2021/06/06 00:46:34;;;;;;;5.10;3.90;;;25.00;53.80;;;;;;5022458;28;20208;-66
2021/06/06 00:49:03;;;;;;;4.50;4.10;;;25.00;53.80;;;;;;5029756;28;20766;-66
2021/06/06 00:51:38;;;;;;;4.30;3.90;;;25.00;53.80;;;;;;5018225;28;20219;-66
2021/06/06 00:54:10;;;;;;;4.50;4.10;;;25.00;53.80;;;;;;5037039;28;20218;-66
2021/06/06 00:56:38;;;;;;;4.07;3.53;;;25.00;53.80;;;;;;5019151;28;20202;-66
2021/06/06 00:59:05;;;;;;;3.97;3.67;;;25.00;53.80;;;;;;5027208;28;20612;-66
2021/06/06 01:01:33;;;;;;;4.47;4.17;;;25.00;53.80;;;;;;5009539;28;20199;-66
2021/06/06 01:04:02;;;;;;;4.17;3.77;;;25.00;53.80;;;;;;5023679;28;20208;-66
2021/06/06 01:06:37;;;;;;;4.00;3.67;;;25.00;53.80;;;;;;5015228;28;20188;-66
2021/06/06 01:09:07;;;;;;;4.20;3.80;;;25.00;53.80;;;;;;5018297;28;20211;-66
2021/06/06 01:11:51;;;;;;;4.30;3.90;;;25.00;53.70;;;;;;5026357;28;20226;-67
2021/06/06 01:14:36;;;;;;;3.83;3.53;;;25.00;53.70;;;;;;5018830;28;20211;-66
2021/06/06 01:17:20;;;;;;;4.10;3.70;;;25.00;53.60;;;;;;5020601;28;20286;-66
2021/06/06 01:20:01;;;;;;;3.60;3.30;;;25.00;53.60;;;;;;5022437;28;20214;-66
2021/06/06 01:22:51;;;;;;;4.00;3.70;;;25.00;53.60;;;;;;5020875;28;20199;-66
2021/06/06 01:25:24;;;;;;;3.77;3.43;;;25.00;53.60;;;;;;5022446;28;20653;-66
2021/06/06 01:28:18;;;;;;;4.17;3.77;;;25.00;53.60;;;;;;5017202;28;20195;-66
2021/06/06 01:30:49;;;;;;;3.80;3.50;;;24.90;53.50;;;;;;5028927;28;20226;-66
2021/06/06 01:33:27;;;;;;;3.70;3.40;;;25.00;53.60;;;;;;5018611;28;20617;-66
2021/06/06 01:36:13;;;;;;;4.50;4.10;;;24.90;53.50;;;;;;5020126;28;20191;-65
2021/06/06 01:38:47;;;;;;;3.77;3.40;;;25.00;53.60;;;;;;5019145;28;20202;-66
2021/06/06 01:41:19;;;;;;;4.10;3.80;;;25.00;53.50;;;;;;5015101;28;20207;-66
2021/06/06 01:43:49;;;;;;;3.80;3.50;;;25.00;53.60;;;;;;5022672;28;20199;-66
2021/06/06 01:46:24;;;;;;;4.07;3.77;;;24.90;53.50;;;;;;5020229;28;20399;-66
2021/06/06 01:48:52;;;;;;;3.60;3.30;;;24.90;53.50;;;;;;5026895;28;20252;-66
2021/06/06 01:51:29;;;;;;;4.37;4.00;;;25.00;53.50;;;;;;5014264;28;20220;-66
2021/06/06 01:53:57;;;;;;;4.10;3.40;;;24.90;53.40;;;;;;5025594;28;20198;-66
2021/06/06 01:56:28;;;;;;;3.90;3.60;;;24.90;53.40;;;;;;5022699;28;20242;-66
2021/06/06 01:58:58;;;;;;;4.00;3.70;;;24.90;53.40;;;;;;5029081;28;20191;-66
2021/06/06 02:01:25;;;;;;;3.77;3.47;;;24.90;53.30;;;;;;5017934;28;20200;-65
2021/06/06 02:03:56;;;;;;;3.90;3.57;;;24.90;53.40;;;;;;5028822;28;20195;-66
2021/06/06 02:06:33;;;;;;;3.87;3.57;;;24.90;53.30;;;;;;5017323;28;20200;-66
2021/06/06 02:09:06;;;;;;;3.63;3.33;;;24.90;53.30;;;;;;5022218;28;20205;-66
2021/06/06 02:11:44;;;;;;;4.07;3.67;;;24.90;53.30;;;;;;5015665;28;20211;-66
2021/06/06 02:14:18;;;;;;;3.63;3.33;;;24.90;53.30;;;;;;5016059;28;20183;-66
2021/06/06 02:16:50;;;;;;;4.13;3.83;;;24.90;53.30;;;;;;5020780;28;20191;-66
2021/06/06 02:19:18;;;;;;;3.90;3.50;;;24.90;53.30;;;;;;5017205;28;20748;-66
2021/06/06 02:21:45;;;;;;;4.00;3.70;;;24.90;53.30;;;;;;5024410;28;20209;-66
2021/06/06 02:24:11;;;;;;;4.30;3.90;;;24.90;53.30;;;;;;5021889;28;20591;-66
2021/06/06 02:26:54;;;;;;;4.10;3.70;;;24.90;53.30;;;;;;5023476;28;20203;-66
2021/06/06 02:29:27;;;;;;;3.83;3.53;;;24.90;53.30;;;;;;5003599;28;20211;-66
2021/06/06 02:32:04;;;;;;;4.47;4.07;;;24.90;53.30;;;;;;5006829;28;20251;-66
2021/06/06 02:35:07;;;;;;;3.90;3.50;;;24.90;53.20;;;;;;5013793;28;20227;-66
2021/06/06 02:37:50;;;;;;;4.50;4.10;;;24.80;53.20;;;;;;5003633;28;20631;-66
2021/06/06 02:40:37;;;;;;;4.63;4.07;;;24.90;53.20;;;;;;5018261;28;20198;-66
2021/06/06 02:43:12;;;;;;;4.70;4.30;;;24.90;53.50;;;;;;5016277;28;20203;-66
2021/06/06 02:45:39;;;;;;;4.27;3.90;;;24.90;53.30;;;;;;5023790;28;20635;-65
2021/06/06 02:48:19;;;;;;;4.73;4.33;;;24.80;53.20;;;;;;5019087;28;20207;-66
2021/06/06 02:50:46;;;;;;;3.87;3.57;;;24.90;53.20;;;;;;5026091;28;20214;-66
2021/06/06 02:53:21;;;;;;;3.87;3.57;;;24.80;53.20;;;;;;5019429;28;20203;-66
2021/06/06 02:55:52;;;;;;;4.30;3.90;;;24.80;53.20;;;;;;5014411;28;20198;-66
2021/06/06 02:58:41;;;;;;;3.83;3.53;;;24.90;53.30;;;;;;5018181;28;20195;-66
2021/06/06 03:01:16;;;;;;;4.30;3.90;;;24.80;53.20;;;;;;5015772;28;20203;-65
2021/06/06 03:03:45;;;;;;;4.17;3.83;;;24.80;53.20;;;;;;5020442;28;20210;-66
2021/06/06 03:06:20;;;;;;;4.57;4.17;;;24.80;53.30;;;;;;5025457;28;20229;-66
2021/06/06 03:08:47;;;;;;;4.53;4.13;;;24.80;53.20;;;;;;5023726;28;20206;-66
2021/06/06 03:11:15;;;;;;;4.40;4.00;;;24.80;53.20;;;;;;5021986;28;20227;-66
2021/06/06 03:13:50;;;;;;;4.77;4.37;;;24.80;53.20;;;;;;5023043;28;20208;-66
2021/06/06 03:16:19;;;;;;;4.37;3.97;;;24.80;53.20;;;;;;5021833;28;20209;-66
2021/06/06 03:18:51;;;;;;;4.30;3.90;;;24.80;53.20;;;;;;5025481;28;20191;-66
2021/06/06 03:21:23;;;;;;;4.70;4.30;;;24.80;53.30;;;;;;5017099;28;20207;-65
2021/06/06 03:24:00;;;;;;;5.00;4.50;;;24.80;53.20;;;;;;5026078;28;20612;-66
2021/06/06 03:26:27;;;;;;;4.17;3.70;;;24.80;53.20;;;;;;5018070;28;20207;-66
2021/06/06 03:28:55;;;;;;;4.87;4.00;;;24.80;53.20;;;;;;5022232;28;20215;-65
2021/06/06 03:31:29;;;;;;;5.50;4.10;;;24.80;53.20;;;;;;5018059;28;20245;-65
2021/06/06 03:33:59;;;;;;;5.00;4.50;;;24.80;53.20;;;;;;5025782;28;20227;-65
2021/06/06 03:36:32;;;;;;;4.63;4.23;;;24.80;53.30;;;;;;5009707;28;20199;-66
2021/06/06 03:39:00;;;;;;;4.83;4.00;;;24.70;53.20;;;;;;5022865;28;20209;-66
2021/06/06 03:41:28;;;;;;;4.60;4.07;;;24.80;53.20;;;;;;5021318;28;20531;-65
2021/06/06 03:43:56;;;;;;;4.97;4.57;;;24.70;53.20;;;;;;5022121;28;20260;-66
2021/06/06 03:46:25;;;;;;;4.97;4.47;;;24.80;53.20;;;;;;5002379;28;20196;-66
2021/06/06 03:48:52;;;;;;;4.83;4.37;;;24.80;53.20;;;;;;5015927;28;20405;-66
2021/06/06 03:51:19;;;;;;;4.80;4.37;;;24.70;53.20;;;;;;5024637;28;20599;-66
2021/06/06 03:53:46;;;;;;;4.47;4.07;;;24.70;53.20;;;;;;5017929;28;20667;-66
2021/06/06 03:56:14;;;;;;;4.60;4.17;;;24.70;53.20;;;;;;5025369;28;20210;-65
2021/06/06 03:58:41;;;;;;;4.90;4.47;;;24.80;53.20;;;;;;5015316;28;20579;-66
2021/06/06 04:01:09;;;;;;;4.80;4.30;;;24.70;53.10;;;;;;5026788;28;20210;-66
2021/06/06 04:03:36;;;;;;;4.13;3.73;;;24.70;53.20;;;;;;5017384;28;20195;-66
2021/06/06 04:06:04;;;;;;;4.43;4.00;;;24.70;53.20;;;;;;5025730;28;20203;-66
2021/06/06 04:08:31;;;;;;;5.43;4.73;;;24.70;53.30;;;;;;5017554;28;20208;-66
2021/06/06 04:10:58;;;;;;;4.43;4.03;;;24.70;53.20;;;;;;5029122;28;20226;-66
2021/06/06 04:13:25;;;;;;;5.07;4.57;;;24.70;53.20;;;;;;5019001;28;20202;-66
2021/06/06 04:15:53;;;;;;;4.70;4.30;;;24.70;53.20;;;;;;5037070;28;20725;-66
2021/06/06 04:18:28;;;;;;;5.40;4.83;;;24.70;53.10;;;;;;5021132;28;20191;-66
2021/06/06 04:20:57;;;;;;;4.40;4.00;;;24.70;53.10;;;;;;5028692;28;20202;-66
2021/06/06 04:23:24;;;;;;;5.23;4.43;;;24.70;53.20;;;;;;5016528;28;20203;-66
2021/06/06 04:25:51;;;;;;;4.27;3.90;;;24.70;53.20;;;;;;5028953;28;20245;-66
2021/06/06 04:28:21;;;;;;;4.90;4.40;;;24.70;53.10;;;;;;5024426;28;20210;-66
2021/06/06 04:30:49;;;;;;;5.23;4.47;;;24.70;53.10;;;;;;5024902;28;20210;-66
2021/06/06 04:33:17;;;;;;;4.83;4.43;;;24.70;53.10;;;;;;5024667;28;20247;-66
2021/06/06 04:35:45;;;;;;;4.23;3.83;;;24.70;53.00;;;;;;5020984;28;20188;-66
2021/06/06 04:38:16;;;;;;;5.37;4.63;;;24.70;53.10;;;;;;5025792;28;20199;-66
2021/06/06 04:40:43;;;;;;;4.70;4.30;;;24.70;53.00;;;;;;5012593;28;20198;-66
2021/06/06 04:43:11;;;;;;;4.97;4.37;;;24.70;53.00;;;;;;5027478;28;20695;-66
2021/06/06 04:45:38;;;;;;;4.50;3.80;;;24.70;53.00;;;;;;5022024;28;20207;-66
2021/06/06 04:48:13;;;;;;;4.80;4.40;;;24.70;53.00;;;;;;5029301;28;20195;-66
2021/06/06 04:50:40;;;;;;;4.83;4.40;;;24.70;53.00;;;;;;5018541;28;20680;-66
2021/06/06 04:53:08;;;;;;;5.50;4.43;;;24.70;53.00;;;;;;5024930;28;20917;-66
2021/06/06 04:55:35;;;;;;;4.80;4.40;;;24.70;53.00;;;;;;5022854;28;20202;-66
2021/06/06 04:58:03;;;;;;;5.77;5.27;;;24.70;53.00;;;;;;5015098;28;20211;-66
2021/06/06 05:00:33;;;;;;;5.93;5.00;;;24.70;52.90;;;;;;5020748;28;20622;-66
2021/06/06 05:03:00;;;;;;;5.30;4.70;;;24.70;53.00;;;;;;5027842;28;20203;-66
2021/06/06 05:05:27;;;;;;;5.20;4.30;;;24.70;52.90;;;;;;5018489;28;20207;-66
2021/06/06 05:07:59;;;;;;;5.17;4.40;;;24.70;52.90;;;;;;5014750;28;20202;-66
2021/06/06 05:10:28;;;;;;;5.27;4.77;;;24.70;52.80;;;;;;5020079;28;20207;-66
2021/06/06 05:12:55;;;;;;;4.53;4.13;;;24.60;52.80;;;;;;5029043;28;20219;-66
2021/06/06 05:15:23;;;;;;;4.43;4.07;;;24.60;52.80;;;;;;5022628;28;20186;-66
2021/06/06 05:17:51;;;;;;;5.00;4.57;;;24.60;52.80;;;;;;5027400;28;20210;-66
2021/06/06 05:20:22;;;;;;;5.07;4.23;;;24.60;52.80;;;;;;5023712;28;20199;-66
2021/06/06 05:22:49;;;;;;;4.63;4.23;;;24.60;52.80;;;;;;5024002;28;20211;-65
2021/06/06 05:25:17;;;;;;;4.63;4.23;;;24.60;52.80;;;;;;5021879;28;20773;-66
2021/06/06 05:27:44;;;;;;;5.60;4.50;;;24.60;52.80;;;;;;5023605;28;20199;-66
2021/06/06 05:30:16;;;;;;;4.27;3.87;;;24.60;52.80;;;;;;5025732;28;20191;-66
2021/06/06 05:32:43;;;;;;;4.97;4.47;;;24.60;52.80;;;;;;5021938;28;20214;-66
2021/06/06 05:35:10;;;;;;;4.63;4.23;;;24.60;53.40;;;;;;5029204;28;20195;-66
2021/06/06 05:37:37;;;;;;;5.60;4.47;;;24.60;52.80;;;;;;5019735;28;20597;-66
2021/06/06 05:40:05;;;;;;;4.97;4.43;;;24.60;52.80;;;;;;5014576;28;20188;-67
2021/06/06 05:42:31;;;;;;;6.80;6.00;;;24.60;52.70;;;;;;5016598;28;20199;-68
2021/06/06 05:44:58;;;;;;;9.13;6.90;;;24.60;52.80;;;;;;5020047;28;20202;-67
2021/06/06 05:47:25;;;;;;;7.23;6.53;;;24.60;52.90;;;;;;5016403;28;20202;-69
2021/06/06 05:49:52;;;;;;;7.83;7.03;;;24.60;52.80;;;;;;5025602;28;20199;-67
2021/06/06 05:52:19;;;;;;;10.50;7.43;;;24.60;52.80;;;;;;5014130;28;20227;-67
2021/06/06 05:54:45;;;;;;;10.20;9.20;;;24.60;52.80;;;;;;5028211;28;20186;-68
2021/06/06 05:57:12;;;;;;;9.73;8.13;;;24.60;52.50;;;;;;5015926;28;20198;-66
2021/06/06 05:59:39;;;;;;;8.80;7.40;;;24.60;52.40;;;;;;5015046;28;20198;-67
2021/06/06 06:02:06;;;;;;;7.77;6.97;;;24.70;52.40;;;;;;5016452;28;20217;-67
2021/06/06 06:04:33;;;;;;;8.97;7.70;;;24.70;52.30;;;;;;5030849;28;20278;-67
2021/06/06 06:07:00;;;;;;;8.50;7.60;;;24.70;52.10;;;;;;5016718;28;20586;-69
2021/06/06 06:09:27;;;;;;;8.50;7.55;;;24.80;52.20;;;;;;5023086;28;20428;-69
2021/06/06 06:11:54;;;;;;;8.27;7.37;;;24.80;52.10;;;;;;5017562;28;20284;-70
2021/06/06 06:14:21;;;;;;;9.07;8.17;;;24.80;52.10;;;;;;5027729;28;20199;-69
2021/06/06 06:16:47;;;;;;;12.03;9.47;;;24.80;51.90;;;;;;5019010;28;20273;-68
2021/06/06 06:19:15;;;;;;;11.37;10.13;;;24.90;51.80;;;;;;5029157;28;20203;-67
2021/06/06 06:21:42;;;;;;;10.67;8.53;;;24.90;51.70;;;;;;5019942;28;20206;-66
2021/06/06 06:24:11;;;;;;;9.37;8.40;;;24.80;51.60;;;;;;5027652;28;20215;-68
2021/06/06 06:26:39;;;;;;;13.20;7.97;;;24.90;51.70;;;;;;5017341;28;20203;-68
2021/06/06 06:29:06;;;;;;;9.37;7.63;;;24.90;51.70;;;;;;5027111;28;20212;-67
2021/06/06 06:31:34;;;;;;;10.37;7.67;;;24.90;51.40;;;;;;5018669;28;20211;-68
2021/06/06 06:34:03;;;;;;;8.30;7.50;;;25.00;51.20;;;;;;5021774;28;20230;-67
2021/06/06 06:36:31;;;;;;;9.17;8.27;;;25.00;51.10;;;;;;5016734;28;20196;-65
2021/06/06 06:38:58;;;;;;;8.60;7.73;;;25.10;51.10;;;;;;5013268;28;20213;-64
2021/06/06 06:41:28;;;;;;;10.80;8.00;;;25.10;51.00;;;;;;5001497;28;20218;-68
2021/06/06 06:43:55;;;;;;;9.97;8.83;;;25.20;50.80;;;;;;5022808;28;20204;-65
2021/06/06 06:46:23;;;;;;;8.40;7.57;;;25.20;50.80;;;;;;5018498;28;20207;-67
2021/06/06 06:48:51;;;;;;;9.23;8.33;;;25.20;50.60;;;;;;5021387;28;20257;-68
2021/06/06 06:51:18;;;;;;;10.00;8.10;;;25.20;50.60;;;;;;5020957;28;20202;-67
2021/06/06 06:53:46;;;;;;;12.03;9.00;;;25.20;50.40;;;;;;5025706;28;20229;-68
2021/06/06 06:56:14;;;;;;;9.40;8.40;;;25.30;50.50;;;;;;5024610;28;20848;-64
2021/06/06 06:58:42;;;;;;;8.83;7.93;;;25.30;50.40;;;;;;5022706;28;20195;-66
2021/06/06 07:01:09;;;;;;;9.90;8.00;;;25.30;50.40;;;;;;5020969;28;20203;-66
2021/06/06 07:03:35;;;;;;;8.97;8.07;;;25.30;50.20;;;;;;5002916;28;20510;-67
2021/06/06 07:06:04;;;;;;;9.40;8.43;;;25.40;50.30;;;;;;5020395;28;20207;-68
2021/06/06 07:08:35;;;;;;;8.90;8.00;;;25.40;50.20;;;;;;5024448;28;20203;-66
2021/06/06 07:11:04;;;;;;;9.33;8.43;;;25.40;50.20;;;;;;5020072;28;20424;-65
2021/06/06 07:13:31;;;;;;;10.13;8.03;;;25.40;50.10;;;;;;5022438;28;20699;-63
2021/06/06 07:16:00;;;;;;;9.47;8.47;;;25.40;50.00;;;;;;5022081;28;20568;-68
2021/06/06 07:18:28;;;;;;;10.73;8.30;;;25.40;50.10;;;;;;5018529;28;20299;-65
2021/06/06 07:20:58;;;;;;;13.30;9.17;;;25.40;50.30;;;;;;5015793;28;20421;-70
2021/06/06 07:23:26;;;;;;;10.83;9.67;;;25.40;50.00;;;;;;5028423;28;20207;-70
2021/06/06 07:25:55;;;;;;;12.50;10.20;;;25.40;49.90;;;;;;5020708;28;20199;-69
2021/06/06 07:28:24;;;;;;;10.97;9.87;;;25.40;49.80;;;;;;5022684;28;20216;-69
2021/06/06 07:30:56;;;;;;;11.10;9.73;;;25.40;49.80;;;;;;5020800;28;20210;-65
2021/06/06 07:33:29;;;;;;;12.53;11.27;;;25.40;49.70;;;;;;5018599;28;20252;-67
2021/06/06 07:35:57;;;;;;;11.97;10.77;;;25.40;49.80;;;;;;5020423;28;20188;-70
2021/06/06 07:38:25;;;;;;;13.90;10.57;;;25.40;49.80;;;;;;5018872;28;20203;-70
2021/06/06 07:40:54;;;;;;;11.47;10.30;;;25.40;50.00;;;;;;5027758;28;20195;-66
2021/06/06 07:43:22;;;;;;;12.60;10.60;;;25.40;50.30;;;;;;5020434;28;20204;-66
2021/06/06 07:45:49;;;;;;;12.27;10.40;;;25.40;51.00;;;;;;5013661;28;20215;-67
2021/06/06 07:48:16;;;;;;;9.67;8.67;;;25.30;50.60;;;;;;5016518;28;20242;-65
2021/06/06 07:50:46;;;;;;;12.00;9.37;;;25.30;50.80;;;;;;5016092;28;20266;-72
2021/06/06 07:53:15;;;;;;;13.40;9.87;;;25.30;50.60;;;;;;5021058;28;20856;-69
2021/06/06 07:55:42;;;;;;;11.20;9.97;;;25.30;50.40;;;;;;5026514;28;20195;-68
2021/06/06 07:58:10;;;;;;;10.63;9.53;;;25.30;50.30;;;;;;5018272;28;20195;-67
2021/06/06 08:00:40;;;;;;;9.63;8.63;;;25.30;50.10;;;;;;5026154;28;20218;-64
2021/06/06 08:03:08;;;;;;;10.57;9.33;;;25.30;50.10;;;;;;5016978;28;21736;-65
2021/06/06 08:05:37;;;;;;;11.27;9.97;;;25.40;50.10;;;;;;5027416;28;20227;-65
2021/06/06 08:08:11;;;;;;;9.87;8.90;;;25.30;50.00;;;;;;5016635;28;20203;-67
2021/06/06 08:10:42;;;;;;;10.00;8.60;;;25.30;49.90;;;;;;5013663;28;20256;-70
2021/06/06 08:13:10;;;;;;;10.20;9.20;;;25.30;50.00;;;;;;5018509;28;20212;-71
2021/06/06 08:15:37;;;;;;;9.00;8.10;;;25.30;49.70;;;;;;5027096;28;20225;-70
2021/06/06 08:18:07;;;;;;;10.57;8.50;;;25.30;50.00;;;;;;5017926;28;20212;-71
2021/06/06 08:20:40;;;;;;;10.53;8.90;;;25.40;50.00;;;;;;5025136;28;20533;-72
2021/06/06 08:23:08;;;;;;;9.07;8.10;;;25.40;49.70;;;;;;5018788;28;20215;-69
2021/06/06 08:25:37;;;;;;;10.87;8.40;;;25.40;49.80;;;;;;5026608;28;20208;-67
2021/06/06 08:28:08;;;;;;;9.40;8.50;;;25.40;49.80;;;;;;5017615;28;20210;-68
2021/06/06 08:30:43;;;;;;;10.47;8.50;;;25.40;49.60;;;;;;5019267;28;20212;-64
2021/06/06 08:33:11;;;;;;;10.33;8.13;;;25.40;49.80;;;;;;5018163;28;20241;-66
2021/06/06 08:35:55;;;;;;;9.93;8.23;;;25.40;49.90;;;;;;5021614;28;20218;-68
2021/06/06 08:38:23;;;;;;;10.20;8.73;;;25.40;49.70;;;;;;5021348;28;20536;-70
2021/06/06 08:41:12;;;;;;;8.97;8.10;;;25.40;49.80;;;;;;5021009;28;20187;-64
2021/06/06 08:43:47;;;;;;;8.80;8.00;;;25.40;49.50;;;;;;5022142;28;20207;-65
2021/06/06 08:46:16;;;;;;;9.30;8.30;;;25.40;49.60;;;;;;5016853;28;20215;-64
2021/06/06 08:48:44;;;;;;;8.73;7.83;;;25.40;49.50;;;;;;5021520;28;20205;-70
2021/06/06 08:51:50;;;;;;;9.33;8.43;;;25.40;49.40;;;;;;5019572;28;20203;-71
2021/06/06 08:54:38;;;;;;;10.17;8.37;;;25.40;49.40;;;;;;4966815;28;20232;-72
2021/06/06 08:57:18;;;;;;;8.93;7.70;;;25.40;49.70;;;;;;5017214;28;20218;-65
2021/06/06 08:59:56;;;;;;;8.67;7.87;;;25.40;49.40;;;;;;5016012;28;20250;-64
2021/06/06 09:02:28;;;;;;;9.67;7.53;;;25.40;49.40;;;;;;5019110;28;20235;-70
2021/06/06 09:04:55;;;;;;;10.63;7.27;;;25.40;49.50;;;;;;5024057;28;20211;-69
2021/06/06 09:07:44;;;;;;;8.60;6.97;;;25.40;49.90;;;;;;5019133;28;20203;-69
2021/06/06 09:10:21;;;;;;;11.33;8.20;;;25.40;49.90;;;;;;5023573;28;20207;-66
2021/06/06 09:12:49;;;;;;;9.73;7.80;;;25.40;49.80;;;;;;5016097;28;20222;-69
2021/06/06 09:15:19;;;;;;;8.73;7.20;;;25.40;50.10;;;;;;5024223;28;20257;-67
2021/06/06 09:17:53;;;;;;;8.00;7.13;;;25.40;50.10;;;;;;5020345;28;20536;-68
2021/06/06 09:20:34;;;;;;;13.27;7.77;;;25.50;50.10;;;;;;5014531;28;20210;-66
2021/06/06 09:23:06;;;;;;;12.60;6.70;;;25.50;50.10;;;;;;5028017;28;20699;-66
2021/06/06 09:25:37;;;;;;;7.10;6.40;;;25.50;50.30;;;;;;5018370;28;20195;-66
2021/06/06 09:28:18;;;;;;;7.13;6.43;;;25.50;50.30;;;;;;5018546;28;20215;-65
2021/06/06 09:30:56;;;;;;;10.07;6.53;;;25.60;50.30;;;;;;5020660;28;20417;-67
2021/06/06 09:33:31;;;;;;;7.67;6.47;;;25.60;50.20;;;;;;5020323;28;20238;-67
2021/06/06 09:36:05;;;;;;;7.43;5.93;;;25.70;50.10;;;;;;5013870;28;20199;-66
2021/06/06 09:38:37;;;;;;;6.60;5.97;;;25.70;50.00;;;;;;5023999;28;21029;-68
2021/06/06 09:41:13;;;;;;;8.97;6.50;;;25.70;49.80;;;;;;5020965;28;20728;-68
2021/06/06 09:43:43;;;;;;;7.13;6.43;;;25.70;49.80;;;;;;5015595;28;20211;-67
2021/06/06 09:46:15;;;;;;;7.00;6.33;;;25.70;49.70;;;;;;5021743;28;20199;-66
2021/06/06 09:48:44;;;;;;;6.87;6.17;;;25.80;49.60;;;;;;5007097;28;20200;-68
2021/06/06 09:51:16;;;;;;;6.63;5.87;;;25.80;49.50;;;;;;5021998;28;20531;-67
2021/06/06 09:53:44;;;;;;;10.60;6.43;;;25.80;49.90;;;;;;5020613;28;20220;-66
2021/06/06 09:56:26;;;;;;;7.57;6.87;;;25.80;50.60;;;;;;5016719;28;20612;-65
2021/06/06 09:59:05;;;;;;;7.97;6.67;;;25.90;51.10;;;;;;5019470;28;20301;-68
2021/06/06 10:01:35;;;;;;;8.43;7.57;;;25.90;51.10;;;;;;5020341;28;20199;-68
2021/06/06 10:04:07;;;;;;;8.07;7.27;;;25.90;50.90;;;;;;5009198;28;20561;-69
2021/06/06 10:06:41;;;;;;;7.83;6.83;;;26.00;50.80;;;;;;5017983;28;20196;-68
2021/06/06 10:09:26;;;;;;;7.90;7.20;;;26.00;50.70;;;;;;5016635;28;20198;-68
2021/06/06 10:12:07;;;;;;;10.20;7.83;;;26.00;50.50;;;;;;5018063;28;20319;-66
2021/06/06 10:15:02;;;;;;;8.70;7.90;;;26.00;50.30;;;;;;5016786;28;20703;-65
2021/06/06 10:17:46;;;;;;;9.80;8.83;;;26.00;50.30;;;;;;5023192;28;20191;-65
2021/06/06 10:20:33;;;;;;;10.80;9.60;;;25.90;49.80;;;;;;5017105;28;20202;-65
2021/06/06 10:23:09;;;;;;;9.07;8.27;;;25.80;49.70;;;;;;5017825;28;20269;-64
2021/06/06 10:25:50;;;;;;;9.60;8.70;;;25.70;50.10;;;;;;5018755;28;20215;-64
2021/06/06 10:28:38;;;;;;;8.53;7.70;;;25.70;50.00;;;;;;5018839;28;20242;-64
2021/06/06 10:31:11;;;;;;;9.87;8.43;;;25.60;50.20;;;;;;5036188;28;20659;-67
2021/06/06 10:33:45;;;;;;;10.67;9.67;;;25.60;49.90;;;;;;5012339;28;20231;-67
2021/06/06 10:36:15;;;;;;;9.97;8.97;;;25.50;49.70;;;;;;5014864;28;20203;-64
2021/06/06 10:38:42;;;;;;;10.47;9.30;;;25.50;49.80;;;;;;5022631;28;20186;-64
2021/06/06 10:41:11;;;;;;;9.47;8.63;;;25.40;49.70;;;;;;5018583;28;20191;-67
2021/06/06 10:44:17;;;;;;;10.10;9.20;;;25.40;49.90;;;;;;4998873;28;20211;-67
2021/06/06 10:47:05;;;;;;;10.23;9.33;;;25.40;49.80;;;;;;4981371;28;20211;-65
2021/06/06 10:49:39;;;;;;;10.70;9.80;;;25.30;49.70;;;;;;5010396;28;20237;-65
2021/06/06 10:52:32;;;;;;;10.97;10.03;;;25.40;50.10;;;;;;5012018;28;20195;-67
2021/06/06 10:55:29;;;;;;;11.20;10.20;;;25.30;50.00;;;;;;5007750;28;20211;-67
2021/06/06 10:58:08;;;;;;;10.57;9.67;;;25.20;50.00;;;;;;5034353;28;20190;-64
2021/06/06 11:00:39;;;;;;;10.97;9.87;;;25.20;50.10;;;;;;5017458;28;20206;-66
2021/06/06 11:03:12;;;;;;;13.47;11.07;;;25.10;50.40;;;;;;5026616;28;20210;-67
2021/06/06 11:05:49;;;;;;;10.67;9.53;;;25.10;50.60;;;;;;5015043;28;20203;-67
2021/06/06 11:08:34;;;;;;;12.90;10.73;;;25.10;50.70;;;;;;5024949;28;20217;-67
2021/06/06 11:11:32;;;;;;;13.77;10.27;;;25.10;50.70;;;;;;5015467;28;20755;-65
2021/06/06 11:13:58;;;;;;;11.50;9.97;;;25.00;50.80;;;;;;5011230;28;20219;-65
2021/06/06 11:16:35;;;;;;;11.80;10.30;;;25.10;51.30;;;;;;5027926;28;20246;-64
2021/06/06 11:19:14;;;;;;;10.37;9.30;;;25.20;51.40;;;;;;5017281;28;20191;-69
2021/06/06 11:21:49;;;;;;;9.13;8.23;;;25.20;51.20;;;;;;5017581;28;20191;-67
2021/06/06 11:24:42;;;;;;;8.30;7.33;;;25.30;51.60;;;;;;5014063;28;20198;-67
2021/06/06 11:27:15;;;;;;;8.10;7.07;;;25.40;51.50;;;;;;5009367;28;20219;-69
2021/06/06 11:29:52;;;;;;;9.47;8.00;;;25.40;51.60;;;;;;5021241;28;20213;-70
2021/06/06 11:32:24;;;;;;;8.40;7.60;;;25.50;51.80;;;;;;5010607;28;20226;-67
2021/06/06 11:35:29;;;;;;;7.43;6.83;;;25.50;51.70;;;;;;5018061;28;20288;-67
2021/06/06 11:38:31;;;;;;;11.63;9.00;;;25.60;51.80;;;;;;5013926;28;20444;-66
2021/06/06 11:41:12;;;;;;;9.90;7.70;;;25.70;51.50;;;;;;5020141;28;20199;-67
2021/06/06 11:43:52;;;;;;;7.80;7.00;;;25.70;51.40;;;;;;5016121;28;20202;-65
2021/06/06 11:46:41;;;;;;;8.33;6.77;;;25.80;51.50;;;;;;5005132;28;20743;-65
2021/06/06 11:49:27;;;;;;;7.70;7.00;;;25.80;51.50;;;;;;5014006;28;20199;-67
2021/06/06 11:51:57;;;;;;;8.57;7.73;;;25.80;51.40;;;;;;5016630;28;20199;-66
2021/06/06 11:54:34;;;;;;;8.17;7.20;;;25.90;51.50;;;;;;5016155;28;20241;-66
2021/06/06 11:57:27;;;;;;;7.93;7.13;;;25.90;51.00;;;;;;5016739;28;20207;-65
2021/06/06 12:00:06;;;;;;;7.20;6.57;;;25.90;51.40;;;;;;5012528;28;20195;-67
2021/06/06 12:02:38;;;;;;;9.13;7.10;;;26.00;51.20;;;;;;5013310;28;20204;-70
2021/06/06 12:05:17;;;;;;;8.50;7.70;;;25.90;50.90;;;;;;5020071;28;20797;-67
2021/06/06 12:07:44;;;;;;;8.13;7.37;;;25.90;50.50;;;;;;5003619;28;20195;-66
2021/06/06 12:10:30;;;;;;;7.30;6.60;;;25.90;50.50;;;;;;5016571;28;20230;-70
2021/06/06 12:13:00;;;;;;;6.73;6.10;;;25.90;50.50;;;;;;5019567;28;20199;-70
2021/06/06 12:15:38;;;;;;;6.77;6.17;;;25.90;50.60;;;;;;5011213;28;20566;-66
2021/06/06 12:18:17;;;;;;;7.67;6.20;;;25.90;50.80;;;;;;5017302;28;20211;-66
2021/06/06 12:20:56;;;;;;;6.50;5.90;;;25.90;50.80;;;;;;5005262;28;20184;-66
2021/06/06 12:23:29;;;;;;;8.00;6.37;;;25.90;50.60;;;;;;5008595;28;20211;-66
2021/06/06 12:26:06;;;;;;;6.40;5.80;;;25.90;50.40;;;;;;5023207;28;20812;-66
2021/06/06 12:28:37;;;;;;;10.77;9.67;;;25.90;50.70;;;;;;5018049;28;20644;-66
2021/06/06 12:31:08;;;;;;;20.27;18.57;;;25.90;51.00;;;;;;5022151;28;20206;-70
2021/06/06 12:33:42;;;;;;;78.70;72.47;;;25.90;51.00;;;;;;5019221;28;20235;-70
2021/06/06 12:36:13;;;;;;;77.27;71.07;;;26.00;50.90;;;;;;5027418;28;20194;-70
2021/06/06 12:38:41;;;;;;;85.03;78.13;;;26.00;51.00;;;;;;5018873;28;20195;-70
2021/06/06 12:41:09;;;;;;;60.57;55.60;;;25.90;51.20;;;;;;5031024;28;20624;-66
2021/06/06 12:43:42;;;;;;;47.37;43.50;;;26.00;51.10;;;;;;5015677;28;20307;-66
2021/06/06 12:46:11;;;;;;;43.20;39.60;;;26.00;50.80;;;;;;5017803;28;20328;-70
2021/06/06 12:48:52;;;;;;;37.47;34.37;;;25.90;51.00;;;;;;5027432;28;20627;-70
2021/06/06 12:51:26;;;;;;;31.17;28.67;;;25.90;51.10;;;;;;5024260;28;20207;-67
2021/06/06 12:54:02;;;;;;;29.60;27.17;;;25.90;51.70;;;;;;5021955;28;20219;-67
2021/06/06 12:56:31;;;;;;;25.93;23.80;;;25.90;51.10;;;;;;5020117;28;20383;-71
2021/06/06 12:59:27;;;;;;;22.83;20.83;;;25.90;51.10;;;;;;5015459;28;20202;-71
2021/06/06 13:02:17;;;;;;;19.93;18.23;;;25.80;50.60;;;;;;4994470;28;20216;-70
2021/06/06 13:04:46;;;;;;;17.53;16.00;;;25.80;50.90;;;;;;5021588;28;20564;-71
2021/06/06 13:07:32;;;;;;;15.37;14.07;;;25.70;50.80;;;;;;5016844;28;20660;-71
2021/06/06 13:09:59;;;;;;;14.43;13.13;;;25.70;50.70;;;;;;5021006;28;20204;-71
2021/06/06 13:12:42;;;;;;;13.30;12.23;;;25.70;50.90;;;;;;5021815;28;20226;-71